« 第20回消防・防災フェスティバルinおやべ 小矢部市 2019/10/5 sat | トップページ | 趣味的航空路誌改訂情報 2019/10/10 thu »

2019/10/06

定点 富山空港 2019/10/5 sat

小矢部の消防フェアから河原転戦。新「とやま」さんは、お出かけ中。

RJNT 050100Z VRB03KT 9999 FEW020 SCT040 BKN050 21/17 Q1013

20191005_rjnt_00b6652

CSN613 ZYTL-RJNT B-6652 A320-232

チョット欲張ったら、並走しながらタッチダウンだちゃ

20191005_rjnt_01ja68an

ANA315 RJTT-RJNT JA68AN B737-881

RJNT 050200Z 15003KT 060V210 9999 FEW020 SCT/// 23/16 Q1013

20191005_rjnt_02ja68an

20191005_rjnt_03ja68an

20191005_rjnt_04ja68an

ANA1181 RJNT-RJCC JA68AN B737-881

20191005_rjnt_05ja119w

富山でP/Gを繰り返してから能登までお出かけしてました。

20191005_rjnt_06ja119w

JA119W AW139 新富山県消防防災

20191005_rjnt_07b6652

20191005_rjnt_08b6652

CSN614 RJNT-ZYTL B-6652 A320-232

RJNT 050300Z 23004KT 170V290 9999 FEW030 23/15 Q1012

20191005_rjnt_09ja119w

格納されないので、午後も飛ぶのかな

20191005_rjnt_10ja10ym

JA10YM A109SP SAK 富山県ドクターヘリ

空港近郊で事案発生。道が混んでいて、かろうじて離陸を見るのみ。

RJNT 050400Z 24004KT 190V300 9999 FEW030 SCT045 BKN/// 24/15 Q1012

20191005_rjnt_11b5260

秋の河原は、先輩達がいっばい

20191005_rjnt_12b5260

Cool

20191005_rjnt_13b5260

CSH825 ZSPD-RJNT B-5260 B737-76D

20191005_rjnt_14ja119w

JA119W 午後のフライト、思いがけず南へ 山か

20191005_rjnt_15b5260

20191005_rjnt_16b5260

20191005_rjnt_17b5260

CSH826 RJNT-ZSPD B-5260 B737-76D

RJNT 050500Z 05005KT 010V100 9999 FEW025 BKN045 BKN/// 24/16 Q1012

20191005_rjnt_18ja119w

山かと思ったら、お城まで見て帰ってきました。

20191005_rjnt_19ja119w

JA119W まだ飛行訓練中

20191005_rjnt_20ja119w

機能美

20191005_rjnt_21fbc

空港消防も車庫前で訓練中

20191005_rjnt_22ja04tv

午後から県内を飛び回っていた黒いヤツがようやく降りてきました。

RJNT 050600Z 04005KT 360V080 9999 FEW020 BKN050 23/16 Q1012

20191005_rjnt_23ja68an

20191005_rjnt_24ja68an

20191005_rjnt_25ja68an

ANA1182 RJCC-RJNT JA68AN B737-881

20191005_rjnt_26ja04tv

JA04TV B430 NNK 中京テレビ

給油と小休憩の後、名古屋に帰ったのかな

RJNT 050700Z 36005KT 9999 VCSH FEW020 SCT030 BKN040 23/16 Q1012

20191005_rjnt_27ja9690

JA9690 AS332L AKF

20191005_rjnt_28ja68an

ANA320 RJNT-RJTT JA68AN B737-881

RJNT 050800Z 36005KT 9999 -SHRA FEW015 SCT025 BKN035 22/16 Q1013

飛来情報が入っていたので、まだ粘ります。

20191005_rjnt_29vpczz

厚い曇天に日の入りも間近

20191005_rjnt_30vpczz

南の国のロックスター?

20191005_rjnt_31vpczz

RKS51 NFFN-RJNT VP-CZZ G650

20191005_rjnt_32vpczz

巧みにリバーサーを使ってスポットイン

###whitewing681さんの動画###

#####

20191005_rjnt_33vpczz

RKS51 RJNT-RJGG VP-CZZ G650

小休止の後、中部へ回航。すっかり闇夜になってしまいました。

 

|

« 第20回消防・防災フェスティバルinおやべ 小矢部市 2019/10/5 sat | トップページ | 趣味的航空路誌改訂情報 2019/10/10 thu »

富山空港」カテゴリの記事

コメント

コメントを書く



(ウェブ上には掲載しません)


コメントは記事投稿者が公開するまで表示されません。



« 第20回消防・防災フェスティバルinおやべ 小矢部市 2019/10/5 sat | トップページ | 趣味的航空路誌改訂情報 2019/10/10 thu »